createdAt,value
2023-04-16T00:01:51.729Z,8.75
2023-04-16T00:04:19.178Z,8.88
2023-04-16T00:06:46.274Z,8.35
2023-04-16T00:09:13.168Z,8.75
2023-04-16T00:11:39.989Z,9.00
2023-04-16T00:14:06.860Z,8.55
2023-04-16T00:16:33.714Z,8.50
2023-04-16T00:19:00.828Z,7.93
2023-04-16T00:21:27.617Z,8.73
2023-04-16T00:23:54.770Z,8.00
2023-04-16T00:26:21.576Z,8.80
2023-04-16T00:28:48.607Z,8.55
2023-04-16T00:31:15.444Z,8.55
2023-04-16T00:33:42.848Z,8.80
2023-04-16T00:36:09.903Z,8.10
2023-04-16T00:38:37.276Z,9.18
2023-04-16T00:41:04.105Z,8.63
2023-04-16T00:43:31.838Z,8.50
2023-04-16T00:45:59.438Z,8.75
2023-04-16T00:48:28.133Z,8.10
2023-04-16T00:50:55.513Z,7.90
2023-04-16T00:53:23.030Z,7.43
2023-04-16T00:55:50.532Z,7.35
2023-04-16T00:58:18.321Z,7.15
2023-04-16T01:00:45.377Z,8.18
2023-04-16T01:03:12.471Z,8.18
2023-04-16T01:05:40.337Z,8.55
2023-04-16T01:08:14.736Z,8.63
2023-04-16T01:10:41.603Z,8.63
2023-04-16T01:13:08.481Z,8.85
2023-04-16T01:15:35.916Z,7.63
2023-04-16T01:18:02.855Z,8.00
2023-04-16T01:20:36.251Z,8.00
2023-04-16T01:23:02.993Z,7.75
2023-04-16T01:25:30.020Z,7.90
2023-04-16T01:27:59.229Z,8.15
2023-04-16T01:30:26.770Z,7.57
2023-04-16T01:33:13.808Z,7.57
2023-04-16T01:35:41.835Z,8.25
2023-04-16T01:38:09.830Z,8.38
2023-04-16T01:40:37.856Z,9.20
2023-04-16T01:43:05.122Z,8.40
2023-04-16T01:45:33.183Z,8.23
2023-04-16T01:48:00.860Z,8.65
2023-04-16T01:50:28.367Z,8.55
2023-04-16T01:52:55.173Z,9.25
2023-04-16T01:55:22.046Z,9.25
2023-04-16T01:57:48.845Z,8.73
2023-04-16T02:00:16.296Z,9.02
2023-04-16T02:02:46.929Z,10.10
2023-04-16T02:05:21.310Z,10.88
2023-04-16T02:07:48.176Z,10.15
2023-04-16T02:10:16.541Z,10.30
2023-04-16T02:12:44.320Z,11.00
2023-04-16T02:15:12.276Z,10.13
2023-04-16T02:17:39.067Z,11.07
2023-04-16T02:20:10.990Z,10.52
2023-04-16T02:22:52.463Z,10.38
2023-04-16T02:25:23.085Z,11.25
2023-04-16T02:27:51.067Z,11.00
2023-04-16T02:30:31.203Z,11.77
2023-04-16T02:32:58.019Z,11.23
2023-04-16T02:35:25.260Z,11.73
2023-04-16T02:37:52.276Z,10.32
2023-04-16T02:40:19.155Z,10.30
2023-04-16T02:42:46.354Z,10.20
2023-04-16T02:45:13.751Z,9.27
2023-04-16T02:47:40.790Z,9.35
2023-04-16T02:50:08.715Z,9.35
2023-04-16T02:52:35.735Z,8.95
2023-04-16T02:55:02.900Z,8.75
2023-04-16T02:57:29.768Z,7.72
2023-04-16T02:59:56.607Z,8.25
2023-04-16T03:02:23.508Z,8.55
2023-04-16T03:04:50.732Z,8.25
2023-04-16T03:07:18.478Z,8.60
2023-04-16T03:09:46.231Z,8.10
2023-04-16T03:12:13.156Z,9.38
2023-04-16T03:14:39.979Z,8.95
2023-04-16T03:17:07.079Z,8.98
2023-04-16T03:19:33.884Z,9.32
2023-04-16T03:22:00.768Z,8.75
2023-04-16T03:24:28.175Z,8.13
2023-04-16T03:26:57.042Z,8.77
2023-04-16T03:29:24.882Z,8.23
2023-04-16T03:31:52.282Z,7.95
2023-04-16T03:34:19.380Z,8.90
2023-04-16T03:36:46.730Z,8.05
2023-04-16T03:39:14.031Z,8.18
2023-04-16T03:41:41.266Z,7.57
2023-04-16T03:44:08.241Z,8.32
2023-04-16T03:46:35.626Z,7.63
2023-04-16T03:49:02.819Z,7.70
2023-04-16T03:51:30.014Z,8.45
2023-04-16T03:53:57.015Z,7.88
2023-04-16T03:56:26.257Z,8.18
2023-04-16T03:58:54.167Z,8.13
2023-04-16T04:01:21.027Z,8.07
2023-04-16T04:03:48.044Z,7.60
2023-04-16T04:06:15.884Z,8.88
2023-04-16T04:08:42.991Z,7.82
2023-04-16T04:11:10.644Z,8.07
2023-04-16T04:13:39.062Z,8.90
2023-04-16T04:16:06.794Z,8.75
2023-04-16T04:18:33.871Z,8.50
2023-04-16T04:21:06.037Z,7.35
2023-04-16T04:23:33.896Z,8.90
2023-04-16T04:26:03.812Z,8.77
2023-04-16T04:28:31.972Z,9.38
2023-04-16T04:30:59.755Z,9.68
2023-04-16T04:33:27.120Z,9.18
2023-04-16T04:35:54.694Z,9.10
2023-04-16T04:38:25.104Z,9.90
2023-04-16T04:40:53.134Z,10.25
2023-04-16T04:43:21.634Z,9.93
2023-04-16T04:45:49.527Z,10.48
2023-04-16T04:48:17.558Z,10.05
2023-04-16T04:50:46.522Z,10.10
2023-04-16T04:53:14.883Z,10.90
2023-04-16T04:55:42.154Z,12.27
2023-04-16T04:58:09.366Z,12.55
2023-04-16T05:00:37.197Z,13.90
2023-04-16T05:03:06.296Z,14.20
2023-04-16T05:05:33.152Z,14.23
2023-04-16T05:08:00.157Z,15.30
2023-04-16T05:10:27.987Z,15.10
2023-04-16T05:12:55.078Z,13.30
2023-04-16T05:15:22.124Z,14.90
2023-04-16T05:17:48.910Z,15.32
2023-04-16T05:20:15.866Z,13.10
2023-04-16T05:22:42.889Z,13.60
2023-04-16T05:25:10.346Z,12.95
2023-04-16T05:27:37.467Z,11.43
2023-04-16T05:30:04.707Z,11.32
2023-04-16T05:32:31.738Z,11.52
2023-04-16T05:34:58.564Z,11.48
2023-04-16T05:37:25.575Z,11.10
2023-04-16T05:39:52.447Z,11.45
2023-04-16T05:42:19.287Z,11.90
2023-04-16T05:44:46.080Z,11.55
2023-04-16T05:47:13.484Z,12.00
2023-04-16T05:49:40.547Z,12.85
2023-04-16T05:52:07.554Z,12.35
2023-04-16T05:54:34.559Z,12.02
2023-04-16T05:57:02.094Z,12.63
2023-04-16T05:59:29.621Z,12.68
2023-04-16T06:01:57.548Z,12.90
2023-04-16T06:04:24.697Z,11.48
2023-04-16T06:06:51.588Z,12.48
2023-04-16T06:09:19.206Z,11.63
2023-04-16T06:11:46.286Z,12.90
2023-04-16T06:14:13.336Z,12.52
2023-04-16T06:16:40.150Z,12.55
2023-04-16T06:19:07.452Z,13.18
2023-04-16T06:21:34.667Z,12.05
2023-04-16T06:24:01.754Z,11.90
2023-04-16T06:26:28.530Z,12.85
2023-04-16T06:28:55.665Z,11.82
2023-04-16T06:31:22.668Z,13.00
2023-04-16T06:33:49.554Z,12.43
2023-04-16T06:36:16.851Z,13.18
2023-04-16T06:38:43.804Z,13.82
2023-04-16T06:41:10.856Z,12.60
2023-04-16T06:43:37.842Z,11.15
2023-04-16T06:46:04.765Z,12.02
2023-04-16T06:48:32.115Z,12.50
2023-04-16T06:50:59.106Z,12.60
2023-04-16T06:53:26.107Z,11.80
2023-04-16T06:55:53.333Z,11.82
2023-04-16T06:58:20.316Z,11.55
2023-04-16T07:00:47.184Z,11.05
2023-04-16T07:03:14.713Z,11.40
2023-04-16T07:05:41.595Z,11.68
2023-04-16T07:08:08.521Z,10.38
2023-04-16T07:10:35.802Z,11.18
2023-04-16T07:13:02.730Z,11.27
2023-04-16T07:15:29.888Z,10.75
2023-04-16T07:17:56.712Z,10.00
2023-04-16T07:20:23.816Z,9.18
2023-04-16T07:22:50.705Z,9.40
2023-04-16T07:25:17.938Z,10.57
2023-04-16T07:27:45.000Z,10.68
2023-04-16T07:30:12.051Z,10.82
2023-04-16T07:32:39.041Z,9.23
2023-04-16T07:35:06.892Z,8.93
2023-04-16T07:37:33.705Z,8.50
2023-04-16T07:40:00.970Z,7.80
2023-04-16T07:42:28.388Z,9.40
2023-04-16T07:44:55.499Z,9.32
2023-04-16T07:47:26.473Z,8.40
2023-04-16T07:49:53.968Z,8.82
2023-04-16T07:52:21.018Z,9.05
2023-04-16T07:54:47.836Z,8.38
2023-04-16T07:57:14.664Z,8.98
2023-04-16T07:59:41.663Z,8.48
2023-04-16T08:02:13.337Z,8.55
2023-04-16T08:04:41.887Z,9.18
2023-04-16T08:07:08.950Z,9.32
2023-04-16T08:09:36.260Z,8.60
2023-04-16T08:12:04.166Z,8.07
2023-04-16T08:14:30.986Z,8.50
2023-04-16T08:16:57.924Z,9.50
2023-04-16T08:19:24.714Z,9.10
2023-04-16T08:21:51.575Z,11.48
2023-04-16T08:24:18.650Z,9.93
2023-04-16T08:26:45.454Z,11.05
2023-04-16T08:29:12.566Z,8.88
2023-04-16T08:31:39.565Z,10.25
2023-04-16T08:34:07.083Z,9.25
2023-04-16T08:36:33.827Z,8.98
2023-04-16T08:39:00.824Z,10.82
2023-04-16T08:41:32.237Z,9.02
2023-04-16T08:44:03.574Z,8.02
2023-04-16T08:46:37.297Z,9.27
2023-04-16T08:49:08.204Z,9.70
2023-04-16T08:51:35.885Z,12.02
2023-04-16T08:54:12.740Z,10.35
2023-04-16T08:56:43.068Z,8.35
2023-04-16T08:59:10.898Z,7.65
2023-04-16T09:01:39.686Z,7.32
2023-04-16T09:04:07.657Z,8.02
2023-04-16T09:06:36.493Z,7.78
2023-04-16T09:09:06.063Z,7.63
2023-04-16T09:11:33.147Z,6.75
2023-04-16T09:14:00.974Z,6.75
2023-04-16T09:16:30.662Z,6.15
2023-04-16T09:18:57.513Z,5.97
2023-04-16T09:21:24.926Z,5.95
2023-04-16T09:23:53.636Z,6.38
2023-04-16T09:26:21.782Z,6.68
2023-04-16T09:28:50.892Z,7.22
2023-04-16T09:31:19.583Z,6.72
2023-04-16T09:34:03.093Z,8.40
2023-04-16T09:36:31.490Z,8.88
2023-04-16T09:38:59.136Z,9.73
2023-04-16T09:41:28.650Z,9.48
2023-04-16T09:44:04.201Z,9.93
2023-04-16T09:46:34.325Z,11.18
2023-04-16T09:49:11.040Z,13.10
2023-04-16T09:51:41.591Z,10.80
2023-04-16T09:54:08.881Z,11.15
2023-04-16T09:56:56.805Z,11.30
2023-04-16T09:59:24.549Z,11.32
2023-04-16T10:01:57.114Z,11.60
2023-04-16T10:04:47.080Z,11.45
2023-04-16T10:07:14.292Z,11.73
2023-04-16T10:09:41.634Z,12.82
2023-04-16T10:12:09.284Z,12.05
2023-04-16T10:14:36.244Z,10.43
2023-04-16T10:17:06.352Z,12.30
2023-04-16T10:19:33.414Z,12.45
2023-04-16T10:22:01.073Z,11.98
2023-04-16T10:24:32.023Z,11.98
2023-04-16T10:26:59.481Z,12.02
2023-04-16T10:29:28.815Z,13.32
2023-04-16T10:31:56.827Z,11.88
2023-04-16T10:34:24.991Z,12.05
2023-04-16T10:36:53.251Z,11.55
2023-04-16T10:39:24.748Z,11.82
2023-04-16T10:42:06.164Z,11.32
2023-04-16T10:44:33.386Z,11.35
2023-04-16T10:47:00.503Z,10.77
2023-04-16T10:49:27.798Z,11.50
2023-04-16T10:51:59.706Z,11.13
2023-04-16T10:54:28.896Z,10.55
2023-04-16T10:57:04.241Z,10.45
2023-04-16T10:59:36.241Z,10.23
2023-04-16T11:02:14.869Z,11.20
2023-04-16T11:04:46.660Z,10.32
2023-04-16T11:07:16.978Z,11.85
2023-04-16T11:10:05.516Z,11.52
2023-04-16T11:12:46.356Z,11.65
2023-04-16T11:15:16.659Z,11.88
2023-04-16T11:17:50.500Z,11.85
2023-04-16T11:20:19.738Z,12.02
2023-04-16T11:22:52.297Z,11.80
2023-04-16T11:25:31.992Z,11.52
2023-04-16T11:27:59.323Z,10.77
2023-04-16T11:30:34.766Z,11.95
2023-04-16T11:33:05.999Z,12.30
2023-04-16T11:35:33.112Z,11.45
2023-04-16T11:38:00.507Z,11.80
2023-04-16T11:40:31.791Z,11.32
2023-04-16T11:43:17.553Z,11.07
2023-04-16T11:46:05.490Z,10.43
2023-04-16T11:48:53.019Z,11.00
2023-04-16T11:51:21.720Z,10.73
2023-04-16T11:53:53.281Z,10.05
2023-04-16T11:56:31.316Z,8.20
2023-04-16T11:59:11.382Z,8.13
2023-04-16T12:01:40.035Z,10.93
2023-04-16T12:04:08.144Z,9.98
2023-04-16T12:06:35.682Z,10.52
2023-04-16T12:09:26.726Z,10.15
2023-04-16T12:11:54.143Z,12.02
2023-04-16T12:14:21.544Z,11.07
2023-04-16T12:16:48.412Z,10.10
2023-04-16T12:19:15.333Z,9.55
2023-04-16T12:21:46.903Z,9.55
2023-04-16T12:24:16.854Z,9.40
2023-04-16T12:26:46.690Z,10.18
2023-04-16T12:29:22.095Z,11.35
2023-04-16T12:31:50.472Z,11.05
2023-04-16T12:34:18.159Z,11.15
2023-04-16T12:36:45.915Z,10.85
2023-04-16T12:39:14.247Z,11.82
2023-04-16T12:41:43.116Z,11.88
2023-04-16T12:44:14.785Z,12.07
2023-04-16T12:46:42.798Z,11.55
2023-04-16T12:49:11.312Z,10.60
2023-04-16T12:51:39.199Z,12.18
2023-04-16T12:54:10.353Z,11.40
2023-04-16T12:56:37.228Z,11.02
2023-04-16T12:59:04.092Z,11.40
2023-04-16T13:01:31.128Z,11.30
2023-04-16T13:03:58.128Z,11.73
2023-04-16T13:06:25.219Z,12.65
2023-04-16T13:08:52.049Z,11.70
2023-04-16T13:11:19.288Z,11.73
2023-04-16T13:13:46.088Z,11.93
2023-04-16T13:16:13.091Z,10.23
2023-04-16T13:18:41.124Z,10.55
2023-04-16T13:21:08.846Z,10.27
2023-04-16T13:23:36.138Z,11.80
2023-04-16T13:26:03.081Z,10.75
2023-04-16T13:28:29.855Z,12.18
2023-04-16T13:30:57.218Z,11.15
2023-04-16T13:33:24.659Z,10.93
2023-04-16T13:35:51.434Z,11.95
2023-04-16T13:38:18.608Z,13.35
2023-04-16T13:40:45.445Z,11.98
2023-04-16T13:43:13.698Z,11.77
2023-04-16T13:45:40.748Z,11.73
2023-04-16T13:48:07.511Z,11.30
2023-04-16T13:50:35.161Z,11.32
2023-04-16T13:53:02.219Z,11.00
2023-04-16T13:55:31.691Z,10.57
2023-04-16T13:57:58.495Z,11.82
2023-04-16T14:00:27.227Z,11.52
2023-04-16T14:02:54.342Z,10.70
2023-04-16T14:05:24.065Z,11.98
2023-04-16T14:07:52.141Z,13.05
2023-04-16T14:10:19.384Z,13.00
2023-04-16T14:12:46.393Z,11.25
2023-04-16T14:15:14.910Z,11.90
2023-04-16T14:17:45.467Z,11.00
2023-04-16T14:20:13.730Z,11.43
2023-04-16T14:22:42.398Z,10.77
2023-04-16T14:25:09.393Z,10.70
2023-04-16T14:27:36.440Z,11.20
2023-04-16T14:30:03.716Z,11.57
2023-04-16T14:32:30.634Z,11.40
2023-04-16T14:34:57.530Z,11.63
2023-04-16T14:37:27.649Z,10.48
2023-04-16T14:39:54.436Z,8.73
2023-04-16T14:42:22.379Z,9.05
2023-04-16T14:44:49.129Z,8.23
2023-04-16T14:47:15.953Z,8.45
2023-04-16T14:49:42.784Z,8.00
2023-04-16T14:52:09.610Z,9.10
2023-04-16T14:54:36.760Z,8.40
2023-04-16T14:57:03.900Z,8.65
2023-04-16T14:59:31.577Z,8.63
2023-04-16T15:01:59.626Z,8.68
2023-04-16T15:04:26.850Z,7.78
2023-04-16T15:06:55.586Z,9.05
2023-04-16T15:09:22.630Z,9.07
2023-04-16T15:11:50.036Z,9.20
2023-04-16T15:14:17.245Z,10.40
2023-04-16T15:16:46.523Z,8.82
2023-04-16T15:19:13.936Z,9.38
2023-04-16T15:21:41.238Z,9.73
2023-04-16T15:24:08.699Z,10.00
2023-04-16T15:26:36.084Z,9.38
2023-04-16T15:29:02.973Z,12.63
2023-04-16T15:31:29.985Z,9.63
2023-04-16T15:33:56.964Z,9.50
2023-04-16T15:36:23.691Z,8.95
2023-04-16T15:38:50.565Z,8.95
2023-04-16T15:41:17.317Z,9.40
2023-04-16T15:43:47.102Z,8.07
2023-04-16T15:46:14.924Z,8.55
2023-04-16T15:48:42.181Z,8.70
2023-04-16T15:51:09.317Z,9.13
2023-04-16T15:53:36.262Z,8.48
2023-04-16T15:56:03.005Z,9.23
2023-04-16T15:58:29.789Z,8.50
2023-04-16T16:00:56.663Z,8.43
2023-04-16T16:03:23.561Z,8.30
2023-04-16T16:05:51.054Z,8.00
2023-04-16T16:08:18.468Z,8.05
2023-04-16T16:10:45.407Z,7.82
2023-04-16T16:13:14.095Z,7.85
2023-04-16T16:15:41.455Z,8.57
2023-04-16T16:18:08.399Z,8.75
2023-04-16T16:20:35.362Z,8.02
2023-04-16T16:23:03.425Z,8.43
2023-04-16T16:25:30.381Z,8.40
2023-04-16T16:27:58.831Z,7.78
2023-04-16T16:30:26.453Z,8.90
2023-04-16T16:32:53.889Z,8.82
2023-04-16T16:35:20.911Z,7.70
2023-04-16T16:37:47.712Z,7.53
2023-04-16T16:40:14.720Z,9.52
2023-04-16T16:42:41.474Z,9.27
2023-04-16T16:45:09.260Z,8.40
2023-04-16T16:47:36.289Z,8.75
2023-04-16T16:50:03.504Z,8.93
2023-04-16T16:52:30.656Z,8.88
2023-04-16T16:54:57.931Z,10.10
2023-04-16T16:57:25.000Z,9.65
2023-04-16T16:59:51.803Z,8.90
2023-04-16T17:02:19.121Z,9.05
2023-04-16T17:04:45.896Z,7.97
2023-04-16T17:07:12.934Z,10.48
2023-04-16T17:09:39.735Z,8.45
2023-04-16T17:12:06.909Z,9.48
2023-04-16T17:14:33.693Z,9.32
2023-04-16T17:17:00.635Z,9.48
2023-04-16T17:19:27.641Z,13.10
2023-04-16T17:21:54.666Z,10.57
2023-04-16T17:24:21.595Z,9.43
2023-04-16T17:26:48.428Z,9.77
2023-04-16T17:29:15.382Z,9.20
2023-04-16T17:31:42.386Z,8.73
2023-04-16T17:34:09.245Z,9.10
2023-04-16T17:36:36.862Z,8.82
2023-04-16T17:39:04.411Z,8.75
2023-04-16T17:41:31.285Z,9.07
2023-04-16T17:43:58.027Z,8.38
2023-04-16T17:46:24.872Z,8.35
2023-04-16T17:48:51.767Z,8.52
2023-04-16T17:51:18.724Z,8.13
2023-04-16T17:53:45.689Z,7.75
2023-04-16T17:56:13.825Z,6.95
2023-04-16T17:58:40.786Z,7.22
2023-04-16T18:01:08.026Z,6.68
2023-04-16T18:03:35.135Z,6.32
2023-04-16T18:06:02.274Z,7.50
2023-04-16T18:08:29.098Z,6.15
2023-04-16T18:10:56.732Z,7.03
2023-04-16T18:13:24.346Z,7.00
2023-04-16T18:15:51.782Z,7.57
2023-04-16T18:18:20.494Z,11.02
2023-04-16T18:20:47.308Z,6.55
2023-04-16T18:23:14.219Z,7.32
2023-04-16T18:25:41.029Z,6.10
2023-04-16T18:28:07.858Z,5.85
2023-04-16T18:30:35.453Z,6.38
2023-04-16T18:35:32.734Z,5.93
2023-04-16T18:37:59.466Z,5.32
2023-04-16T18:40:26.375Z,5.38
2023-04-16T18:42:53.223Z,5.20
2023-04-16T18:45:21.800Z,5.32
2023-04-16T18:47:50.223Z,5.30
2023-04-16T18:50:17.152Z,4.80
2023-04-16T18:52:44.031Z,5.65
2023-04-16T18:55:10.767Z,4.97
2023-04-16T18:57:37.693Z,5.35
2023-04-16T19:00:10.755Z,5.03
2023-04-16T19:02:38.042Z,5.30
2023-04-16T19:05:05.386Z,5.03
2023-04-16T19:07:32.247Z,5.75
2023-04-16T19:10:00.064Z,6.20
2023-04-16T19:12:26.815Z,7.15
2023-04-16T19:14:53.603Z,9.88
2023-04-16T19:17:20.801Z,12.57
2023-04-16T19:19:47.607Z,10.75
2023-04-16T19:22:14.424Z,10.57
2023-04-16T19:24:41.434Z,10.80
2023-04-16T19:27:08.683Z,11.07
2023-04-16T19:29:35.675Z,12.07
2023-04-16T19:32:02.785Z,11.32
2023-04-16T19:34:29.712Z,12.23
2023-04-16T19:36:56.484Z,12.40
2023-04-16T19:39:27.892Z,11.88
2023-04-16T19:41:54.768Z,11.70
2023-04-16T19:44:23.132Z,12.90
2023-04-16T19:46:51.578Z,12.25
2023-04-16T19:49:18.453Z,12.48
2023-04-16T19:51:46.273Z,14.13
2023-04-16T19:54:13.378Z,15.25
2023-04-16T19:56:40.244Z,15.25
2023-04-16T19:59:07.369Z,14.27
2023-04-16T20:01:34.165Z,15.40
2023-04-16T20:04:01.307Z,15.85
2023-04-16T20:06:28.153Z,16.48
2023-04-16T20:08:56.672Z,15.07
2023-04-16T20:11:23.511Z,15.73
2023-04-16T20:13:50.707Z,17.02
2023-04-16T20:16:17.745Z,16.92
2023-04-16T20:18:46.101Z,15.55
2023-04-16T20:21:13.247Z,16.83
2023-04-16T20:23:40.007Z,17.33
2023-04-16T20:26:07.047Z,17.48
2023-04-16T20:28:33.809Z,16.33
2023-04-16T20:31:00.781Z,17.80
2023-04-16T20:33:27.626Z,16.13
2023-04-16T20:35:54.572Z,17.13
2023-04-16T20:38:23.941Z,16.88
2023-04-16T20:41:06.185Z,15.73
2023-04-16T20:43:38.575Z,16.15
2023-04-16T20:46:06.411Z,16.58
2023-04-16T20:48:33.570Z,15.77
2023-04-16T20:51:04.970Z,16.27
2023-04-16T20:53:32.742Z,16.13
2023-04-16T20:56:00.626Z,16.70
2023-04-16T20:58:27.867Z,15.65
2023-04-16T21:00:56.054Z,15.00
2023-04-16T21:03:23.702Z,14.25
2023-04-16T21:05:51.930Z,15.30
2023-04-16T21:08:19.716Z,14.82
2023-04-16T21:10:47.113Z,15.75
2023-04-16T21:13:14.299Z,15.43
2023-04-16T21:15:43.064Z,15.75
2023-04-16T21:18:11.056Z,15.55
2023-04-16T21:20:38.655Z,14.90
2023-04-16T21:23:05.999Z,15.55
2023-04-16T21:25:33.568Z,15.95
2023-04-16T21:28:00.493Z,15.35
2023-04-16T21:30:27.536Z,13.73
2023-04-16T21:32:54.895Z,14.95
2023-04-16T21:35:21.884Z,15.30
2023-04-16T21:37:48.664Z,15.70
2023-04-16T21:40:15.534Z,16.50
2023-04-16T21:42:42.484Z,14.95
2023-04-16T21:45:10.501Z,15.85
2023-04-16T21:47:37.843Z,14.75
2023-04-16T21:50:05.784Z,15.77
2023-04-16T21:52:32.961Z,16.30
2023-04-16T21:55:00.533Z,15.57
2023-04-16T21:57:27.584Z,16.13
2023-04-16T21:59:54.431Z,15.05
2023-04-16T22:02:21.676Z,14.88
2023-04-16T22:04:48.737Z,14.45
2023-04-16T22:07:16.860Z,14.25
2023-04-16T22:09:44.046Z,15.20
2023-04-16T22:12:10.908Z,14.23
2023-04-16T22:14:44.011Z,15.48
2023-04-16T22:17:11.069Z,14.77
2023-04-16T22:19:39.247Z,15.35
2023-04-16T22:22:06.190Z,14.98
2023-04-16T22:24:33.082Z,14.55
2023-04-16T22:26:59.870Z,16.48
2023-04-16T22:29:26.892Z,15.55
2023-04-16T22:31:55.244Z,14.82
2023-04-16T22:34:22.117Z,15.38
2023-04-16T22:36:49.010Z,14.82
2023-04-16T22:39:15.877Z,15.25
2023-04-16T22:41:42.649Z,16.08
2023-04-16T22:44:16.873Z,15.25
2023-04-16T22:46:45.348Z,15.98
2023-04-16T22:49:12.576Z,15.65
2023-04-16T22:51:40.252Z,15.00
2023-04-16T22:54:07.828Z,15.93
2023-04-16T22:56:34.924Z,15.43
2023-04-16T22:59:01.785Z,16.35
2023-04-16T23:01:28.625Z,15.25
2023-04-16T23:03:55.526Z,15.48
2023-04-16T23:06:22.286Z,15.18
2023-04-16T23:08:49.105Z,15.93
2023-04-16T23:11:15.974Z,16.73
2023-04-16T23:13:42.834Z,14.90
2023-04-16T23:16:09.618Z,16.40
2023-04-16T23:18:36.915Z,15.82
2023-04-16T23:21:03.816Z,15.57
2023-04-16T23:23:30.845Z,14.93
2023-04-16T23:25:57.617Z,15.02
2023-04-16T23:28:24.442Z,14.90
2023-04-16T23:30:52.870Z,15.35
2023-04-16T23:33:20.345Z,15.35
2023-04-16T23:35:47.974Z,14.95
2023-04-16T23:38:14.794Z,14.63
2023-04-16T23:40:41.504Z,15.70
2023-04-16T23:43:08.374Z,15.63
2023-04-16T23:45:35.222Z,14.27
2023-04-16T23:48:02.077Z,14.07
2023-04-16T23:50:28.864Z,15.73
2023-04-16T23:52:56.015Z,14.55
2023-04-16T23:55:23.007Z,15.75
2023-04-16T23:57:49.963Z,15.65
